createdAt,value
2018-08-25T00:00:45.844Z,48.90
2018-08-25T00:03:14.172Z,48.90
2018-08-25T00:05:42.515Z,48.90
2018-08-25T00:08:10.825Z,48.90
2018-08-25T00:10:39.235Z,48.90
2018-08-25T00:13:07.947Z,49.00
2018-08-25T00:15:36.326Z,48.90
2018-08-25T00:18:04.748Z,49.60
2018-08-25T00:20:33.127Z,48.90
2018-08-25T00:23:01.541Z,48.90
2018-08-25T00:25:29.875Z,48.90
2018-08-25T00:27:58.214Z,48.90
2018-08-25T00:30:31.843Z,48.90
2018-08-25T00:33:00.175Z,48.90
2018-08-25T00:35:28.925Z,48.90
2018-08-25T00:37:57.353Z,49.00
2018-08-25T00:40:25.901Z,48.90
2018-08-25T00:42:54.349Z,48.90
2018-08-25T00:45:22.717Z,48.90
2018-08-25T00:47:51.086Z,49.00
2018-08-25T00:50:19.441Z,48.90
2018-08-25T00:52:47.775Z,49.00
2018-08-25T00:55:16.199Z,49.00
2018-08-25T00:57:44.645Z,49.00
2018-08-25T01:00:13.187Z,49.00
2018-08-25T01:02:41.651Z,49.00
2018-08-25T01:05:10.136Z,49.00
2018-08-25T01:07:38.471Z,49.00
2018-08-25T01:10:06.885Z,49.70
2018-08-25T01:12:35.236Z,49.00
2018-08-25T01:15:03.718Z,49.00
2018-08-25T01:17:32.414Z,49.10
2018-08-25T01:20:00.757Z,48.50
2018-08-25T01:22:29.166Z,49.10
2018-08-25T01:24:57.518Z,49.10
2018-08-25T01:27:25.883Z,48.50
2018-08-25T01:29:54.244Z,49.10
2018-08-25T01:32:22.819Z,49.10
2018-08-25T01:34:51.244Z,49.10
2018-08-25T01:37:19.879Z,49.10
2018-08-25T01:39:48.402Z,49.10
2018-08-25T01:42:16.728Z,49.10
2018-08-25T01:44:45.104Z,49.10
2018-08-25T01:47:13.461Z,49.00
2018-08-25T01:49:41.848Z,49.00
2018-08-25T01:52:10.241Z,49.10
2018-08-25T01:54:38.757Z,49.10
2018-08-25T01:57:07.303Z,49.10
2018-08-25T01:59:35.769Z,49.10
2018-08-25T02:02:04.227Z,49.10
2018-08-25T02:04:32.727Z,49.10
2018-08-25T02:07:01.094Z,49.80
2018-08-25T02:09:29.504Z,49.20
2018-08-25T02:11:58.913Z,49.10
2018-08-25T02:14:28.162Z,49.10
2018-08-25T02:16:56.695Z,49.10
2018-08-25T02:19:26.198Z,49.20
2018-08-25T02:21:54.631Z,49.20
2018-08-25T02:24:22.961Z,49.20
2018-08-25T02:26:51.365Z,49.20
2018-08-25T02:29:19.673Z,49.20
2018-08-25T02:31:48.423Z,49.20
2018-08-25T02:34:16.753Z,49.30
2018-08-25T02:36:45.287Z,49.20
2018-08-25T02:39:14.511Z,49.20
2018-08-25T02:41:43.633Z,49.20
2018-08-25T02:44:11.949Z,49.30
2018-08-25T02:46:40.289Z,49.30
2018-08-25T02:49:08.583Z,49.30
2018-08-25T02:51:36.902Z,49.30
2018-08-25T02:54:05.307Z,49.30
2018-08-25T02:56:33.761Z,49.30
2018-08-25T02:59:02.316Z,49.30
2018-08-25T03:01:30.996Z,49.40
2018-08-25T03:03:59.307Z,49.30
2018-08-25T03:06:27.801Z,49.30
2018-08-25T03:08:56.177Z,49.30
2018-08-25T03:11:24.633Z,49.30
2018-08-25T03:13:53.060Z,49.30
2018-08-25T03:16:21.563Z,49.10
2018-08-25T03:18:50.063Z,49.20
2018-08-25T03:21:18.408Z,49.20
2018-08-25T03:23:46.734Z,49.20
2018-08-25T03:26:15.076Z,49.20
2018-08-25T03:28:43.439Z,49.20
2018-08-25T03:31:11.787Z,49.20
2018-08-25T03:33:40.155Z,49.20
2018-08-25T03:36:08.677Z,49.20
2018-08-25T03:38:37.000Z,49.20
2018-08-25T03:41:05.853Z,49.10
2018-08-25T03:43:34.185Z,49.10
2018-08-25T03:46:02.548Z,49.10
2018-08-25T03:48:30.862Z,49.70
2018-08-25T03:50:59.229Z,49.10
2018-08-25T03:53:27.642Z,49.10
2018-08-25T03:55:55.958Z,49.10
2018-08-25T03:58:24.498Z,49.00
2018-08-25T04:00:53.191Z,49.70
2018-08-25T04:03:21.552Z,49.10
2018-08-25T04:05:49.902Z,49.00
2018-08-25T04:08:18.320Z,49.00
2018-08-25T04:10:47.836Z,49.10
2018-08-25T04:13:16.302Z,49.00
2018-08-25T04:15:46.735Z,49.00
2018-08-25T04:18:15.122Z,49.00
2018-08-25T04:20:43.502Z,49.70
2018-08-25T04:23:11.859Z,49.00
2018-08-25T04:25:40.242Z,49.00
2018-08-25T04:28:08.710Z,49.00
2018-08-25T04:30:37.070Z,49.00
2018-08-25T04:33:05.602Z,49.10
2018-08-25T04:35:34.102Z,49.00
2018-08-25T04:38:02.782Z,49.10
2018-08-25T04:40:31.219Z,49.10
2018-08-25T04:42:59.605Z,49.00
2018-08-25T04:45:27.933Z,49.00
2018-08-25T04:47:56.269Z,49.00
2018-08-25T04:50:24.753Z,49.10
2018-08-25T04:52:53.127Z,49.10
2018-08-25T04:55:21.569Z,49.10
2018-08-25T04:57:49.913Z,49.10
2018-08-25T05:00:18.285Z,49.20
2018-08-25T05:02:46.618Z,49.20
2018-08-25T05:05:14.948Z,49.30
2018-08-25T05:07:43.491Z,49.30
2018-08-25T05:10:11.993Z,49.20
2018-08-25T05:12:40.313Z,49.20
2018-08-25T05:15:08.834Z,49.20
2018-08-25T05:17:37.265Z,49.20
2018-08-25T05:20:05.789Z,49.20
2018-08-25T05:22:34.127Z,49.20
2018-08-25T05:25:02.448Z,49.30
2018-08-25T05:27:30.813Z,49.30
2018-08-25T05:29:59.218Z,49.30
2018-08-25T05:32:27.668Z,49.30
2018-08-25T05:34:56.146Z,49.30
2018-08-25T05:37:24.496Z,49.40
2018-08-25T05:39:52.800Z,49.40
2018-08-25T05:42:21.120Z,49.40
2018-08-25T05:44:49.521Z,49.40
2018-08-25T05:47:17.912Z,49.40
2018-08-25T05:49:46.244Z,49.50
2018-08-25T05:52:14.585Z,49.40
2018-08-25T05:54:42.934Z,49.40
2018-08-25T05:57:11.263Z,49.40
2018-08-25T05:59:39.656Z,49.50
2018-08-25T06:02:07.973Z,49.50
2018-08-25T06:04:36.301Z,49.50
2018-08-25T06:07:04.652Z,49.40
2018-08-25T06:09:33.157Z,49.50
2018-08-25T06:12:01.585Z,49.40
2018-08-25T06:14:30.001Z,49.60
2018-08-25T06:16:58.331Z,49.50
2018-08-25T06:19:26.822Z,49.50
2018-08-25T06:21:55.181Z,49.50
2018-08-25T06:24:23.547Z,49.60
2018-08-25T06:26:51.861Z,49.60
2018-08-25T06:29:20.211Z,49.00
2018-08-25T06:31:48.596Z,49.50
2018-08-25T06:34:16.954Z,49.50
2018-08-25T06:36:45.392Z,49.50
2018-08-25T06:39:13.836Z,49.50
2018-08-25T06:41:42.376Z,49.60
2018-08-25T06:44:10.774Z,49.70
2018-08-25T06:46:39.146Z,49.70
2018-08-25T06:49:07.450Z,49.90
2018-08-25T06:51:35.910Z,50.10
2018-08-25T06:54:04.244Z,50.40
2018-08-25T06:56:32.676Z,50.60
2018-08-25T06:59:00.981Z,50.60
2018-08-25T07:01:29.420Z,50.90
2018-08-25T07:03:57.756Z,51.00
2018-08-25T07:06:26.109Z,51.30
2018-08-25T07:08:54.432Z,51.40
2018-08-25T07:11:22.799Z,51.60
2018-08-25T07:13:51.141Z,51.60
2018-08-25T07:16:19.514Z,52.00
2018-08-25T07:18:48.310Z,52.10
2018-08-25T07:21:16.617Z,52.20
2018-08-25T07:23:45.305Z,52.30
2018-08-25T07:26:13.692Z,52.20
2018-08-25T07:28:42.048Z,52.20
2018-08-25T07:31:10.408Z,52.30
2018-08-25T07:33:38.791Z,52.50
2018-08-25T07:36:07.121Z,52.70
2018-08-25T07:38:35.660Z,52.80
2018-08-25T07:41:03.958Z,52.90
2018-08-25T07:43:32.357Z,53.00
2018-08-25T07:46:00.743Z,53.10
2018-08-25T07:48:29.191Z,53.20
2018-08-25T07:50:58.014Z,53.00
2018-08-25T07:53:26.452Z,52.90
2018-08-25T07:55:54.809Z,52.70
2018-08-25T07:58:23.194Z,52.60
2018-08-25T08:00:51.550Z,52.60
2018-08-25T08:03:19.893Z,52.50
2018-08-25T08:05:48.190Z,52.40
2018-08-25T08:08:16.557Z,52.30
2018-08-25T08:10:44.892Z,52.20
2018-08-25T08:13:13.224Z,52.20
2018-08-25T08:15:41.773Z,52.10
2018-08-25T08:18:10.153Z,52.20
2018-08-25T08:20:38.492Z,52.10
2018-08-25T08:23:06.820Z,52.00
2018-08-25T08:25:35.189Z,52.10
2018-08-25T08:28:03.531Z,52.10
2018-08-25T08:30:31.912Z,52.10
2018-08-25T08:33:00.535Z,52.10
2018-08-25T08:35:29.086Z,50.90
2018-08-25T08:37:57.792Z,50.40
2018-08-25T08:40:26.284Z,50.30
2018-08-25T08:42:54.612Z,50.50
2018-08-25T08:45:23.065Z,50.60
2018-08-25T08:47:51.330Z,50.60
2018-08-25T08:50:19.735Z,50.80
2018-08-25T08:52:48.037Z,51.00
2018-08-25T08:55:16.366Z,51.20
2018-08-25T08:57:44.735Z,51.30
2018-08-25T09:00:13.092Z,51.30
2018-08-25T09:02:41.512Z,51.70
2018-08-25T09:05:09.858Z,52.10
2018-08-25T09:07:38.215Z,52.20
2018-08-25T09:10:07.009Z,52.30
2018-08-25T09:12:35.687Z,52.10
2018-08-25T09:15:04.417Z,52.00
2018-08-25T09:17:33.454Z,52.10
2018-08-25T09:20:02.012Z,52.10
2018-08-25T09:22:30.377Z,52.20
2018-08-25T09:24:58.794Z,52.30
2018-08-25T09:27:27.239Z,52.20
2018-08-25T09:29:55.642Z,51.80
2018-08-25T09:32:23.957Z,51.40
2018-08-25T09:34:52.293Z,51.10
2018-08-25T09:37:20.790Z,51.00
2018-08-25T09:39:49.132Z,50.70
2018-08-25T09:42:17.681Z,50.40
2018-08-25T09:44:46.035Z,50.60
2018-08-25T09:47:14.426Z,50.60
2018-08-25T09:49:42.883Z,50.60
2018-08-25T09:52:11.515Z,50.10
2018-08-25T09:54:39.967Z,49.80
2018-08-25T09:57:08.419Z,49.50
2018-08-25T09:59:36.789Z,49.10
2018-08-25T10:02:07.200Z,49.10
2018-08-25T10:04:35.871Z,49.50
2018-08-25T10:07:04.813Z,49.40
2018-08-25T10:09:33.143Z,49.30
2018-08-25T10:12:01.498Z,49.10
2018-08-25T10:14:29.863Z,48.10
2018-08-25T10:16:58.252Z,48.60
2018-08-25T10:19:26.542Z,48.70
2018-08-25T10:21:54.859Z,48.40
2018-08-25T10:24:23.207Z,47.50
2018-08-25T10:26:51.521Z,47.40
2018-08-25T10:29:19.869Z,47.80
2018-08-25T10:31:48.218Z,47.40
2018-08-25T10:34:16.594Z,48.10
2018-08-25T10:36:44.955Z,47.90
2018-08-25T10:39:13.708Z,47.90
2018-08-25T10:41:42.487Z,47.90
2018-08-25T10:44:10.789Z,47.90
2018-08-25T10:46:39.869Z,48.40
2018-08-25T10:49:08.896Z,48.70
2018-08-25T10:51:37.586Z,49.40
2018-08-25T10:54:06.529Z,48.80
2018-08-25T10:56:35.038Z,47.80
2018-08-25T10:59:03.476Z,48.00
2018-08-25T11:01:31.834Z,48.00
2018-08-25T11:04:00.174Z,47.30
2018-08-25T11:06:28.652Z,47.60
2018-08-25T11:08:57.061Z,47.90
2018-08-25T11:11:25.723Z,48.00
2018-08-25T11:13:54.255Z,47.70
2018-08-25T11:16:23.147Z,46.80
2018-08-25T11:18:51.525Z,47.10
2018-08-25T11:21:19.969Z,47.50
2018-08-25T11:23:48.397Z,47.60
2018-08-25T11:26:16.810Z,47.20
2018-08-25T11:28:45.215Z,47.20
2018-08-25T11:31:13.593Z,46.90
2018-08-25T11:33:41.979Z,46.90
2018-08-25T11:36:10.581Z,47.00
2018-08-25T11:38:39.506Z,47.00
2018-08-25T11:41:08.355Z,46.60
2018-08-25T11:43:36.769Z,46.60
2018-08-25T11:46:05.445Z,46.60
2018-08-25T11:48:34.127Z,46.50
2018-08-25T11:51:02.845Z,46.10
2018-08-25T11:53:31.220Z,45.90
2018-08-25T11:55:59.573Z,46.30
2018-08-25T11:58:27.995Z,46.00
2018-08-25T12:00:56.448Z,46.00
2018-08-25T12:03:24.899Z,46.10
2018-08-25T12:05:53.183Z,45.30
2018-08-25T12:08:21.565Z,44.60
2018-08-25T12:10:49.909Z,45.80
2018-08-25T12:13:18.342Z,45.20
2018-08-25T12:15:46.725Z,45.60
2018-08-25T12:18:15.208Z,45.30
2018-08-25T12:20:43.685Z,45.50
2018-08-25T12:23:12.077Z,45.80
2018-08-25T12:25:40.419Z,45.40
2018-08-25T12:28:09.045Z,45.00
2018-08-25T12:30:37.442Z,45.10
2018-08-25T12:33:06.028Z,45.30
2018-08-25T12:35:35.423Z,45.60
2018-08-25T12:38:03.833Z,45.40
2018-08-25T12:40:32.170Z,45.10
2018-08-25T12:43:00.617Z,45.60
2018-08-25T12:45:28.985Z,45.80
2018-08-25T12:47:57.313Z,45.80
2018-08-25T12:50:25.682Z,45.80
2018-08-25T12:52:54.166Z,45.70
2018-08-25T12:55:22.627Z,45.70
2018-08-25T12:57:50.908Z,45.60
2018-08-25T13:00:19.374Z,45.60
2018-08-25T13:02:47.999Z,45.50
2018-08-25T13:05:16.350Z,45.30
2018-08-25T13:07:44.766Z,44.80
2018-08-25T13:10:13.116Z,44.40
2018-08-25T13:12:41.423Z,44.90
2018-08-25T13:15:09.814Z,44.80
2018-08-25T13:17:38.154Z,44.60
2018-08-25T13:20:06.595Z,44.30
2018-08-25T13:22:35.068Z,44.30
2018-08-25T13:25:03.471Z,44.30
2018-08-25T13:27:31.825Z,44.50
2018-08-25T13:30:00.166Z,44.60
2018-08-25T13:32:28.489Z,44.80
2018-08-25T13:34:56.920Z,43.70
2018-08-25T13:37:25.463Z,43.70
2018-08-25T13:39:53.841Z,42.80
2018-08-25T13:42:22.191Z,43.70
2018-08-25T13:44:50.594Z,43.80
2018-08-25T13:47:18.965Z,44.30
2018-08-25T13:49:47.344Z,44.10
2018-08-25T13:52:16.047Z,44.20
2018-08-25T13:54:44.410Z,44.50
2018-08-25T13:57:12.844Z,45.00
2018-08-25T13:59:41.544Z,43.90
2018-08-25T14:02:10.114Z,44.00
2018-08-25T14:04:38.572Z,44.40
2018-08-25T14:07:07.126Z,44.30
2018-08-25T14:09:35.601Z,43.40
2018-08-25T14:12:04.036Z,44.00
2018-08-25T14:14:32.506Z,43.20
2018-08-25T14:17:01.105Z,43.40
2018-08-25T14:19:29.474Z,42.70
2018-08-25T14:21:57.855Z,42.90
2018-08-25T14:24:26.232Z,43.60
2018-08-25T14:26:54.717Z,44.30
2018-08-25T14:29:23.082Z,44.50
2018-08-25T14:31:51.449Z,44.00
2018-08-25T14:34:19.815Z,44.30
2018-08-25T14:36:48.203Z,45.40
2018-08-25T14:39:16.593Z,44.70
2018-08-25T14:41:45.005Z,44.80
2018-08-25T14:44:13.293Z,44.20
2018-08-25T14:46:41.599Z,41.80
2018-08-25T14:49:09.957Z,40.50
2018-08-25T14:51:38.408Z,40.50
2018-08-25T14:54:06.862Z,41.20
2018-08-25T14:56:35.215Z,41.90
2018-08-25T14:59:03.631Z,42.30
2018-08-25T15:01:31.971Z,41.50
2018-08-25T15:04:00.474Z,40.40
2018-08-25T15:06:28.806Z,39.10
2018-08-25T15:08:57.346Z,39.40
2018-08-25T15:11:25.817Z,40.00
2018-08-25T15:13:54.168Z,39.70
2018-08-25T15:16:22.565Z,39.40
2018-08-25T15:18:50.930Z,39.90
2018-08-25T15:21:19.343Z,40.70
2018-08-25T15:23:47.726Z,39.40
2018-08-25T15:26:16.151Z,39.80
2018-08-25T15:28:44.493Z,40.30
2018-08-25T15:31:12.878Z,41.00
2018-08-25T15:33:41.297Z,41.90
2018-08-25T15:36:09.656Z,40.70
2018-08-25T15:38:38.079Z,40.80
2018-08-25T15:41:06.482Z,40.70
2018-08-25T15:43:34.926Z,40.30
2018-08-25T15:46:03.246Z,40.00
2018-08-25T15:48:31.586Z,39.90
2018-08-25T15:50:59.946Z,40.00
2018-08-25T15:53:28.273Z,41.00
2018-08-25T15:55:56.670Z,40.00
2018-08-25T15:58:25.143Z,40.20
2018-08-25T16:00:53.498Z,40.90
2018-08-25T16:03:21.788Z,40.50
2018-08-25T16:05:50.166Z,40.70
2018-08-25T16:08:18.497Z,40.30
2018-08-25T16:10:46.869Z,39.40
2018-08-25T16:13:15.278Z,38.80
2018-08-25T16:15:43.722Z,39.20
2018-08-25T16:18:13.004Z,38.70
2018-08-25T16:20:41.419Z,39.40
2018-08-25T16:23:10.505Z,40.00
2018-08-25T16:25:39.025Z,39.90
2018-08-25T16:28:07.803Z,39.20
2018-08-25T16:30:36.209Z,39.50
2018-08-25T16:33:04.677Z,39.90
2018-08-25T16:35:33.053Z,39.60
2018-08-25T16:38:01.419Z,39.50
2018-08-25T16:40:29.802Z,40.00
2018-08-25T16:42:58.183Z,40.70
2018-08-25T16:45:26.534Z,40.30
2018-08-25T16:47:54.967Z,40.40
2018-08-25T16:50:23.433Z,40.60
2018-08-25T16:52:51.836Z,40.30
2018-08-25T16:55:20.345Z,40.70
2018-08-25T16:57:48.693Z,40.70
2018-08-25T17:00:17.207Z,41.00
2018-08-25T17:02:45.559Z,40.80
2018-08-25T17:05:13.920Z,40.00
2018-08-25T17:07:42.201Z,39.30
2018-08-25T17:10:10.591Z,39.90
2018-08-25T17:12:38.903Z,39.30
2018-08-25T17:15:07.535Z,38.60
2018-08-25T17:17:36.174Z,37.90
2018-08-25T17:20:04.529Z,38.10
2018-08-25T17:22:32.823Z,38.90
2018-08-25T17:25:01.320Z,39.50
2018-08-25T17:27:29.659Z,39.60
2018-08-25T17:29:58.396Z,39.80
2018-08-25T17:32:27.422Z,40.20
2018-08-25T17:34:55.770Z,40.20
2018-08-25T17:37:24.228Z,40.40
2018-08-25T17:39:52.614Z,40.80
2018-08-25T17:42:20.947Z,41.00
2018-08-25T17:44:49.265Z,40.90
2018-08-25T17:47:17.701Z,41.00
2018-08-25T17:49:46.040Z,41.00
2018-08-25T17:52:14.493Z,41.10
2018-08-25T17:54:42.837Z,40.90
2018-08-25T17:57:11.311Z,41.00
2018-08-25T17:59:39.564Z,41.20
2018-08-25T18:02:07.931Z,42.10
2018-08-25T18:04:36.300Z,42.50
2018-08-25T18:07:04.864Z,42.20
2018-08-25T18:09:33.249Z,42.80
2018-08-25T18:12:01.746Z,42.90
2018-08-25T18:14:30.231Z,43.30
2018-08-25T18:16:58.790Z,43.80
2018-08-25T18:19:27.137Z,43.90
2018-08-25T18:21:55.520Z,44.20
2018-08-25T18:24:23.863Z,44.20
2018-08-25T18:26:52.434Z,44.50
2018-08-25T18:29:21.111Z,44.50
2018-08-25T18:31:49.493Z,45.00
2018-08-25T18:34:17.904Z,44.80
2018-08-25T18:36:46.297Z,45.30
2018-08-25T18:39:14.911Z,44.90
2018-08-25T18:41:43.923Z,45.10
2018-08-25T18:44:12.979Z,45.10
2018-08-25T18:46:41.363Z,45.30
2018-08-25T18:49:09.743Z,45.40
2018-08-25T18:51:38.183Z,45.40
2018-08-25T18:54:06.840Z,45.30
2018-08-25T18:56:36.208Z,45.30
2018-08-25T18:59:05.008Z,45.50
2018-08-25T19:01:33.337Z,45.70
2018-08-25T19:04:01.934Z,45.90
2018-08-25T19:06:30.309Z,46.00
2018-08-25T19:08:58.903Z,45.90
2018-08-25T19:11:27.682Z,45.80
2018-08-25T19:13:56.968Z,46.50
2018-08-25T19:16:26.001Z,47.30
2018-08-25T19:18:54.643Z,47.30
2018-08-25T19:21:23.251Z,47.00
2018-08-25T19:23:51.628Z,47.80
2018-08-25T19:26:20.125Z,47.80
2018-08-25T19:28:48.489Z,47.10
2018-08-25T19:31:16.843Z,46.90
2018-08-25T19:33:45.245Z,47.00
2018-08-25T19:36:13.619Z,47.00
2018-08-25T19:38:42.051Z,46.70
2018-08-25T19:41:11.118Z,46.60
2018-08-25T19:43:39.791Z,46.90
2018-08-25T19:46:08.267Z,46.60
2018-08-25T19:48:36.900Z,46.60
2018-08-25T19:51:05.306Z,46.80
2018-08-25T19:53:34.252Z,46.80
2018-08-25T19:56:02.886Z,46.90
2018-08-25T19:58:31.372Z,47.20
2018-08-25T20:00:59.705Z,47.20
2018-08-25T20:03:28.114Z,47.10
2018-08-25T20:05:56.740Z,47.70
2018-08-25T20:08:25.099Z,47.20
2018-08-25T20:10:53.482Z,47.10
2018-08-25T20:13:23.162Z,47.20
2018-08-25T20:15:51.532Z,47.20
2018-08-25T20:18:20.502Z,47.20
2018-08-25T20:20:48.995Z,47.20
2018-08-25T20:23:17.216Z,47.20
2018-08-25T20:25:45.576Z,47.20
2018-08-25T20:28:13.952Z,47.10
2018-08-25T20:30:42.565Z,47.20
2018-08-25T20:33:10.981Z,47.20
2018-08-25T20:35:39.376Z,47.20
2018-08-25T20:38:08.542Z,47.20
2018-08-25T20:40:36.936Z,47.10
2018-08-25T20:43:05.894Z,47.10
2018-08-25T20:45:34.441Z,47.20
2018-08-25T20:48:03.294Z,47.20
2018-08-25T20:50:31.691Z,47.10
2018-08-25T20:53:00.068Z,47.20
2018-08-25T20:55:28.474Z,47.10
2018-08-25T20:57:56.864Z,47.10
2018-08-25T21:00:25.284Z,47.10
2018-08-25T21:02:53.764Z,47.00
2018-08-25T21:05:22.177Z,47.10
2018-08-25T21:07:50.575Z,47.00
2018-08-25T21:10:19.219Z,46.90
2018-08-25T21:12:47.576Z,47.00
2018-08-25T21:15:15.896Z,47.00
2018-08-25T21:17:44.309Z,47.00
2018-08-25T21:20:12.669Z,47.00
2018-08-25T21:22:41.059Z,47.00
2018-08-25T21:25:09.550Z,47.00
2018-08-25T21:27:38.114Z,47.00
2018-08-25T21:30:07.927Z,47.00
2018-08-25T21:32:36.515Z,47.00
2018-08-25T21:35:05.419Z,47.00
2018-08-25T21:37:33.851Z,47.00
2018-08-25T21:40:02.365Z,47.00
2018-08-25T21:42:30.791Z,47.00
2018-08-25T21:44:59.278Z,46.90
2018-08-25T21:47:27.622Z,46.90
2018-08-25T21:49:56.186Z,46.90
2018-08-25T21:52:24.738Z,46.90
2018-08-25T21:54:53.121Z,46.90
2018-08-25T21:57:21.686Z,46.90
2018-08-25T21:59:50.043Z,46.90
2018-08-25T22:02:19.013Z,46.90
2018-08-25T22:04:47.944Z,46.90
2018-08-25T22:07:16.476Z,46.90
2018-08-25T22:09:44.968Z,46.80
2018-08-25T22:12:13.467Z,46.80
2018-08-25T22:14:41.893Z,46.80
2018-08-25T22:17:10.274Z,47.40
2018-08-25T22:19:38.737Z,46.70
2018-08-25T22:22:07.229Z,46.80
2018-08-25T22:24:35.790Z,46.80
2018-08-25T22:27:04.309Z,46.80
2018-08-25T22:29:32.728Z,46.80
2018-08-25T22:32:01.290Z,46.80
2018-08-25T22:34:29.679Z,46.80
2018-08-25T22:36:58.102Z,46.60
2018-08-25T22:39:26.532Z,47.40
2018-08-25T22:41:54.958Z,46.60
2018-08-25T22:44:23.308Z,46.60
2018-08-25T22:46:51.645Z,46.60
2018-08-25T22:49:20.098Z,46.60
2018-08-25T22:51:48.446Z,46.70
2018-08-25T22:54:16.830Z,46.70
2018-08-25T22:56:45.219Z,46.70
2018-08-25T22:59:13.606Z,46.60
2018-08-25T23:01:41.950Z,47.20
2018-08-25T23:04:10.318Z,46.60
2018-08-25T23:06:38.762Z,46.60
2018-08-25T23:09:08.622Z,46.50
2018-08-25T23:11:37.148Z,46.50
2018-08-25T23:14:05.752Z,46.50
2018-08-25T23:16:34.071Z,46.40
2018-08-25T23:19:02.710Z,46.40
2018-08-25T23:21:31.206Z,46.40
2018-08-25T23:24:00.017Z,46.40
2018-08-25T23:26:28.345Z,46.40
2018-08-25T23:28:56.801Z,46.40
2018-08-25T23:31:25.187Z,46.30
2018-08-25T23:33:53.549Z,46.30
2018-08-25T23:36:21.901Z,46.40
2018-08-25T23:38:50.363Z,46.30
2018-08-25T23:41:18.716Z,46.30
2018-08-25T23:43:47.091Z,46.20
2018-08-25T23:46:15.576Z,46.20
2018-08-25T23:48:44.048Z,46.20
2018-08-25T23:51:12.397Z,46.20
2018-08-25T23:53:40.752Z,46.10
2018-08-25T23:56:09.106Z,46.20
2018-08-25T23:58:37.481Z,46.70
